Latest Weather Observations for Port Augusta

IDS60801

Issued at 6:51 am CDT Tuesday 6 December 2022 (issued every 10 minutes, with the page automatically refreshed every 10 minutes)

About weather observations | Map of weather stations | Latest weather observations for SA | Other Formats
Station Details ID: 018201 Name: PORT AUGUSTA AERO Lat: -32.51 Lon: 137.72 Height: 13.97 m
Data from the previous 72 hours. | See also: Recent months at Port Augusta
Date/Time
CDT
Temp
°C
App
Temp
°C
Dew
Point
°C
Rel
Hum
%
Delta-T
°C
Wind Press
QNH
hPa
Press
MSL
hPa
Rain since
9am
mm
Dir  Spd
km/h
Gust
km/h
Spd
kts
Gust
kts
06/06:30am 19.0 15.8 10.0 56 4.8 ESE 17 22 9 12 1008.5 1008.4 0.0
06/06:00am 19.0 15.1 8.6 51 5.4 SE 19 22 10 12 1008.8 1008.7 0.0
06/05:30am 19.4 15.0 9.0 51 5.5 SE 22 28 12 15 1008.7 1008.6 0.0
06/05:00am 19.5 15.9 9.7 53 5.2 SE 19 24 10 13 1008.6 1008.5 0.0
06/04:30am 19.4 16.2 10.1 55 5.0 SSE 17 22 9 12 1008.5 1008.4 0.0
06/04:00am 19.5 16.3 10.0 54 5.1 SSE 17 22 9 12 1008.7 1008.6 0.0
06/03:30am 19.6 17.2 10.0 54 5.2 SSE 13 17 7 9 1008.5 1008.4 0.0
06/03:00am 19.4 17.4 10.1 55 5.0 SSE 11 15 6 8 1009.1 1009.0 0.0
06/02:30am 18.7 16.5 10.8 60 4.3 SSE 13 17 7 9 1009.6 1009.5 0.0
06/02:00am 19.0 16.4 10.6 58 4.5 SE 15 22 8 12 1009.9 1009.8 0.0
06/01:30am 19.2 16.5 10.5 57 4.7 SSE 15 20 8 11 1010.9 1010.8 0.0
06/01:00am 18.6 14.4 11.2 62 4.0 SSE 24 30 13 16 1011.2 1011.1 0.0
06/12:30am 18.5 13.8 12.0 66 3.6 SSE 28 37 15 20 1011.6 1011.5 0.0
06/12:00am 18.4 13.8 12.4 68 3.3 SSE 28 35 15 19 1011.7 1011.6 0.0
 
Date/Time
CDT
Temp
°C
App
Temp
°C
Dew
Point
°C
Rel
Hum
%
Delta-T
°C
Wind Press
QNH
hPa
Press
MSL
hPa
Rain since
9am
mm
Dir  Spd
km/h
Gust
km/h
Spd
kts
Gust
kts
05/11:30pm 18.3 15.1 13.2 72 2.9 S 22 32 12 17 1012.6 1012.5 0.0
05/11:00pm 19.1 15.7 12.6 66 3.6 SSE 22 30 12 16 1012.8 1012.7 0.0
05/10:30pm 19.8 15.8 11.8 60 4.4 SSE 24 39 13 21 1012.9 1012.8 0.0
05/10:00pm 20.4 15.7 11.9 58 4.7 S 28 35 15 19 1013.4 1013.3 0.0
05/09:30pm 20.8 16.4 11.7 56 5.1 SSW 26 33 14 18 1013.5 1013.4 0.0
05/09:00pm 21.1 16.6 11.4 54 5.4 SSW 26 33 14 18 1012.6 1012.5 0.0
05/08:30pm 21.5 18.3 11.2 52 5.7 SSW 19 26 10 14 1012.2 1012.1 0.0
05/08:00pm 22.1 18.6 10.9 49 6.2 S 20 28 11 15 1011.7 1011.6 0.0
05/07:30pm 22.7 17.1 10.2 45 6.8 SSE 30 37 16 20 1011.3 1011.2 0.0
05/07:00pm 23.3 17.8 10.4 44 7.1 SSE 30 41 16 22 1011.2 1011.1 0.0
05/06:30pm 24.2 18.2 10.1 41 7.8 SSE 32 37 17 20 1011.0 1010.9 0.0
05/06:00pm 24.2 19.5 10.8 43 7.5 SSE 26 39 14 21 1011.5 1011.4 0.0
05/05:30pm 24.6 19.1 10.5 41 7.8 SSE 30 43 16 23 1011.2 1011.1 0.0
05/05:00pm 24.2 18.9 9.8 40 7.9 SSE 28 35 15 19 1011.8 1011.7 0.0
05/04:30pm 23.8 19.8 10.5 43 7.4 SSE 22 35 12 19 1012.8 1012.7 0.0
05/04:00pm 22.8 18.4 10.3 45 6.9 S 24 30 13 16 1013.2 1013.1 0.0
05/03:30pm 22.6 17.6 9.4 43 7.1 S 26 35 14 19 1013.1 1013.0 0.0
05/03:00pm 21.4 17.1 10.9 51 5.8 S 24 32 13 17 1013.6 1013.5 0.0
05/02:30pm 22.8 16.7 9.9 44 7.0 S 32 39 17 21 1013.5 1013.4 0.0
05/02:00pm 22.9 17.4 9.3 42 7.3 S 28 37 15 20 1014.2 1014.1 0.0
05/01:30pm 22.1 15.8 9.6 45 6.7 SSW 33 41 18 22 1015.1 1015.0 0.0
05/01:00pm 23.5 17.0 8.8 39 7.9 S 33 43 18 23 1014.7 1014.6 0.0
05/12:30pm 23.7 17.7 10.7 44 7.2 SSE 33 44 18 24 1014.8 1014.7 0.0
05/12:00pm 23.9 17.6 10.9 44 7.2 SSE 35 48 19 26 1014.1 1014.0 0.0
05/11:30am 23.3 17.4 11.0 46 6.8 S 33 46 18 25 1014.4 1014.3 0.0
05/11:00am 22.1 15.8 10.9 49 6.2 S 35 43 19 23 1014.2 1014.1 0.0
05/10:30am 21.0 14.1 11.6 55 5.2 S 39 52 21 28 1014.2 1014.1 0.0
05/10:00am 20.8 13.7 12.2 58 4.8 S 41 50 22 27 1013.6 1013.5 0.0
05/09:30am 20.0 12.4 11.8 59 4.5 S 43 54 23 29 1013.5 1013.4 0.0
05/09:00am 19.1 12.7 11.9 63 4.0 S 37 48 20 26 1013.6 1013.5 0.0
05/08:30am 18.8 12.3 11.6 63 4.0 S 37 48 20 26 1013.5 1013.4 0.0
05/08:00am 18.7 12.9 12.7 68 3.4 S 35 44 19 24 1013.1 1013.0 0.0
05/07:30am 18.2 12.5 12.9 71 3.0 S 35 48 19 26 1013.0 1012.9 0.0
05/07:00am 17.7 11.9 12.6 72 2.8 S 35 44 19 24 1013.1 1013.0 0.0
05/06:30am 17.8 12.3 12.5 71 2.9 S 33 43 18 23 1012.6 1012.5 0.0
05/06:00am 18.0 12.3 12.9 72 2.9 S 35 44 19 24 1012.5 1012.4 0.0
05/05:30am 18.5 13.5 13.4 72 2.9 S 32 39 17 21 1012.1 1012.0 0.0
05/05:00am 18.6 13.8 13.9 74 2.7 S 32 39 17 21 1011.9 1011.8 0.0
05/04:30am 18.8 14.0 14.5 76 2.5 S 33 41 18 22 1012.1 1012.0 0.0
05/04:00am 18.7 13.9 14.0 74 2.7 SSW 32 41 17 22 1012.3 1012.2 0.0
05/03:30am 18.9 14.9 14.0 73 2.8 SSW 28 32 15 17 1012.6 1012.5 0.0
05/03:00am 18.8 15.5 13.9 73 2.8 SSW 24 30 13 16 1013.1 1013.0 0.0
05/02:30am 18.8 14.7 13.9 73 2.8 SW 28 35 15 19 1013.5 1013.4 0.0
05/02:00am 19.1 15.8 13.9 72 3.0 SW 24 33 13 18 1013.5 1013.4 0.0
05/01:30am 19.1 14.1 14.1 73 2.9 SSW 33 43 18 23 1013.6 1013.5 0.0
05/01:00am 19.4 14.5 14.4 73 2.9 SSW 33 46 18 25 1014.3 1014.2 0.0
05/12:30am 19.5 15.6 14.5 73 2.9 SSW 28 35 15 19 1014.5 1014.4 0.0
05/12:00am 19.6 14.7 14.4 72 3.0 SSW 33 43 18 23 1014.7 1014.6 0.0
 
Date/Time
CDT
Temp
°C
App
Temp
°C
Dew
Point
°C
Rel
Hum
%
Delta-T
°C
Wind Press
QNH
hPa
Press
MSL
hPa
Rain since
9am
mm
Dir  Spd
km/h
Gust
km/h
Spd
kts
Gust
kts
04/11:30pm 19.9 15.5 14.0 69 3.4 SSW 30 39 16 21 1014.7 1014.6 0.0
04/11:00pm 19.9 14.5 14.0 69 3.4 SSW 35 44 19 24 1014.5 1014.4 0.0
04/10:30pm 20.4 15.3 13.8 66 3.8 S 33 48 18 26 1014.6 1014.5 0.0
04/10:22pm 20.6 16.1 13.8 65 3.9 SSW 30 48 16 26 1014.4 1014.3 0.0
04/10:00pm 21.2 16.7 13.9 63 4.2 SSW 30 46 16 25 1013.8 1013.7 0.0
04/09:59pm 21.2 17.0 13.6 62 4.4 SSW 28 46 15 25 1013.8 1013.7 0.0
04/09:30pm 21.0 15.1 14.6 67 3.7 S 39 48 21 26 1013.0 1012.9 0.0
04/09:00pm 21.5 15.3 15.8 70 3.4 SSE 43 54 23 29 1012.0 1011.9 0.0
04/08:30pm 22.1 16.7 16.1 69 3.6 SSE 39 54 21 29 1011.4 1011.3 0.0
04/08:03pm 22.8 17.7 15.9 65 4.2 SSE 37 56 20 30 1010.8 1010.7 0.0
04/08:00pm 22.9 17.0 15.7 64 4.3 SSE 41 56 22 30 1010.7 1010.6 0.0
04/07:30pm 24.6 17.9 15.2 55 5.7 SSE 44 59 24 32 1009.7 1009.6 0.0
04/07:29pm 24.6 18.1 15.2 55 5.6 SSE 43 59 23 32 1009.7 1009.6 0.0
04/07:05pm 29.9 23.8 11.9 33 10.5 S 35 48 19 26 1008.9 1008.8 0.0
04/07:00pm 31.9 24.8 9.4 25 12.7 SSW 37 48 20 26 1008.7 1008.6 0.0
04/06:30pm 33.6 26.1 9.6 23 13.7 SSW 39 52 21 28 1006.8 1006.8 0.0
04/06:22pm 37.1 32.4 6.2 15 17.0 W 20 48 11 26 1006.3 1006.3 0.0
04/06:00pm 38.7 33.1 0.2 9 19.6 NW 19 28 10 15 1006.1 1006.1 0.0
04/05:30pm 39.5 34.4 0.8 9 19.9 NW 17 33 9 18 1006.3 1006.3 0.0
04/05:00pm 39.1 33.8 1.9 10 19.4 NNW 19 30 10 16 1006.7 1006.7 0.0
04/04:30pm 38.8 33.9 1.7 10 19.3 NNW 17 28 9 15 1007.0 1007.0 0.0
04/04:00pm 39.3 35.2 2.1 10 19.5 N 13 24 7 13 1007.6 1007.6 0.0
04/03:30pm 38.6 34.8 1.6 10 19.2 NNW 11 19 6 10 1008.1 1008.0 0.0
04/03:00pm 38.7 34.4 3.0 11 18.9 NNE 15 20 8 11 1008.5 1008.4 0.0
04/02:30pm 38.7 34.4 3.0 11 18.9 NNW 15 28 8 15 1009.0 1008.9 0.0
04/02:00pm 38.5 34.9 2.8 11 18.8 ENE 11 26 6 14 1009.4 1009.3 0.0
04/01:30pm 37.5 32.2 2.1 11 18.4 N 19 30 10 16 1009.9 1009.8 0.0
04/01:00pm 36.6 31.2 2.6 12 17.7 NNW 20 32 11 17 1010.4 1010.3 0.0
04/12:30pm 36.7 30.8 3.8 13 17.5 NW 24 32 13 17 1010.7 1010.6 0.0
04/12:00pm 36.1 30.5 5.4 15 16.6 NNW 24 35 13 19 1011.1 1011.0 0.0
04/11:30am 35.9 29.5 5.2 15 16.6 NNW 28 39 15 21 1011.5 1011.4 0.0
04/11:00am 34.6 27.4 6.0 17 15.5 NNW 33 44 18 24 1011.7 1011.6 0.0
04/10:30am 34.4 27.4 6.7 18 15.2 N 33 44 18 24 1011.7 1011.6 0.0
04/10:00am 33.2 26.0 5.7 18 14.7 NNW 33 43 18 23 1012.1 1012.0 0.0
04/09:30am 33.2 26.5 5.7 18 14.7 N 30 39 16 21 1012.1 1012.0 0.0
04/09:00am 31.2 25.9 4.9 19 13.8 NNW 22 30 12 16 1012.1 1012.0 0.0
04/08:30am 28.5 24.1 4.7 22 12.2 NNW 17 20 9 11 1012.1 1012.0 0.0
04/08:00am 26.7 23.4 2.6 21 11.8 NW 9 13 5 7 1012.0 1011.9 0.0
04/07:30am 23.5 20.2 2.4 25 10.0 W 9 13 5 7 1011.4 1011.3 0.0
04/07:00am 19.3 17.4 2.6 33 7.7 WNW 2 6 1 3 1010.8 1010.7 0.0
04/06:30am 16.5 13.5 1.8 37 6.5 W 7 9 4 5 1010.6 1010.5 0.0
04/06:00am 17.1 14.6 1.5 35 6.9 NNW 4 6 2 3 1010.2 1010.1 0.0
04/05:30am 17.8 14.8 2.2 35 7.1 NNW 7 9 4 5 1010.1 1010.0 0.0
04/05:00am 17.6 14.1 3.5 39 6.6 NNE 11 13 6 7 1009.8 1009.7 0.0
04/04:30am 19.1 16.0 1.1 30 8.1 NNW 7 11 4 6 1009.8 1009.7 0.0
04/04:00am 20.0 16.1 1.0 28 8.6 WSW 11 13 6 7 1009.7 1009.6 0.0
04/03:30am 20.4 16.8 0.8 27 8.8 WSW 9 11 5 6 1009.9 1009.8 0.0
04/03:00am 20.6 15.9 1.0 27 8.9 WSW 15 17 8 9 1009.9 1009.8 0.0
04/02:30am 19.4 15.1 0.9 29 8.3 WSW 13 15 7 8 1009.9 1009.8 0.0
04/02:00am 19.3 15.5 1.8 31 8.0 WNW 11 13 6 7 1010.0 1009.9 0.0
04/01:30am 19.4 16.9 4.7 38 7.1 NW 7 9 4 5 1010.1 1010.0 0.0
04/01:00am 20.9 20.6 12.6 59 4.7 ENE 6 9 3 5 1010.5 1010.4 0.0
04/12:30am 22.6 21.2 13.4 56 5.3 E 13 17 7 9 1010.5 1010.4 0.0
04/12:00am 24.0 21.6 11.3 45 7.1 E 15 17 8 9 1010.7 1010.6 0.0
 
Date/Time
CDT
Temp
°C
App
Temp
°C
Dew
Point
°C
Rel
Hum
%
Delta-T
°C
Wind Press
QNH
hPa
Press
MSL
hPa
Rain since
9am
mm
Dir  Spd
km/h
Gust
km/h
Spd
kts
Gust
kts
03/11:30pm 22.9 21.0 11.9 50 6.2 ENE 13 15 7 8 1010.7 1010.6 0.0
03/11:00pm 26.3 23.2 8.8 33 9.5 ESE 15 20 8 11 1010.8 1010.7 0.0
03/10:30pm 27.0 23.9 8.9 32 9.9 ESE 15 17 8 9 1010.7 1010.6 0.0
03/10:00pm 27.5 22.6 1.8 19 12.4 ESE 17 20 9 11 1010.5 1010.4 0.0
03/09:30pm 28.6 23.8 0.3 16 13.5 SSE 15 19 8 10 1010.1 1010.0 0.0
03/09:00pm 29.3 23.7 -3.0 12 14.6 SSE 17 19 9 10 1009.9 1009.8 0.0
03/08:30pm 30.0 24.9 0.6 15 14.2 SE 17 20 9 11 1009.7 1009.6 0.0
03/08:00pm 31.9 26.9 1.1 14 15.2 SSE 17 22 9 12 1009.5 1009.4 0.0
03/07:30pm 34.2 28.4 -4.7 8 17.7 SE 17 22 9 12 1009.2 1009.1 0.0
03/07:00pm 34.9 29.5 -1.2 10 17.5 SE 17 24 9 13 1009.0 1008.9 0.0
03/06:30pm 35.1 29.0 -2.5 9 17.9 SSE 20 28 11 15 1008.9 1008.8 0.0
03/06:00pm 35.9 29.8 -3.5 8 18.5 SE 19 24 10 13 1008.8 1008.7 0.0
03/05:30pm 35.8 29.6 -5.3 7 18.8 SE 19 28 10 15 1008.8 1008.7 0.0
03/05:00pm 36.6 31.0 -3.0 8 18.8 ESE 17 26 9 14 1008.9 1008.8 0.0
03/04:30pm 35.8 30.1 -7.3 6 19.1 ESE 15 22 8 12 1009.2 1009.1 0.0
03/04:00pm 35.9 29.8 -3.5 8 18.5 SE 19 26 10 14 1009.3 1009.2 0.0
03/03:30pm 37.2 32.6 -0.9 9 18.8 ENE 13 26 7 14 1009.6 1009.5 0.0
03/03:00pm 35.8 31.1 -2.0 9 18.2 S 13 24 7 13 1010.0 1009.9 0.0
03/02:30pm 36.0 30.7 -0.4 10 18.0 SE 17 26 9 14 1010.3 1010.2 0.0
03/02:00pm 35.9 30.6 -0.5 10 17.9 E 17 24 9 13 1010.6 1010.5 0.0
03/01:30pm 34.9 30.3 -1.2 10 17.5 SSE 13 22 7 12 1010.9 1010.8 0.0
03/01:00pm 34.8 29.2 0.0 11 17.2 SE 19 26 10 14 1011.5 1011.4 0.0
03/12:30pm 34.9 29.5 -1.2 10 17.5 SE 17 28 9 15 1011.8 1011.7 0.0
03/12:00pm 33.9 29.7 -0.7 11 16.8 S 11 24 6 13 1012.2 1012.1 0.0
03/11:30am 34.2 28.9 -0.4 11 16.9 NE 17 24 9 13 1012.4 1012.3 0.0
03/11:00am 33.0 27.9 0.9 13 15.9 NNE 17 24 9 13 1012.7 1012.6 0.0
03/10:30am 32.4 28.9 3.4 16 14.9 NNE 11 22 6 12 1012.8 1012.7 0.0
03/10:00am 31.6 28.9 3.6 17 14.4 ENE 7 13 4 7 1012.9 1012.8 0.0
03/09:30am 30.0 26.2 3.9 19 13.3 N 13 19 7 10 1013.0 1012.9 0.0
03/09:00am 29.2 25.3 3.2 19 13.1 NW 13 17 7 9 1013.1 1013.0 0.0
03/08:30am 28.2 26.6 4.5 22 12.1 S 2 7 1 4 1013.0 1012.9 0.0
03/08:00am 27.3 24.8 5.0 24 11.4 SE 7 9 4 5 1012.6 1012.5 0.0
03/07:30am 25.4 22.5 4.5 26 10.5 SE 9 11 5 6 1012.2 1012.1 0.0
03/07:00am 23.2 19.5 4.2 29 9.3 SE 13 15 7 8 1011.9 1011.8 0.0

Other formats

Comma delimited format used in spreadsheet applications
http://www.bom.gov.au/fwo/IDS60801/IDS60801.95666.axf

JavaScript Object Notation format (JSON) in row-major order
http://www.bom.gov.au/fwo/IDS60801/IDS60801.95666.json

Data quality

Most of these data are generated automatically and are frequently updated. Quality checks on data are not normally performed. It is possible for incorrect values to appear. Refer to information at About Latest Weather Observations and please check the disclaimer before using these data.